sensor_id;sensor_type;location;lat;lon;timestamp;P1;durP1;ratioP1;P2;durP2;ratioP2
8281;SDS011;25606;42.686;23.136;2023-05-13T00:02:19;13.80;;;10.23;;
8281;SDS011;25606;42.686;23.136;2023-05-13T00:04:46;12.33;;;10.27;;
8281;SDS011;25606;42.686;23.136;2023-05-13T00:07:14;13.77;;;9.97;;
8281;SDS011;25606;42.686;23.136;2023-05-13T00:09:41;10.50;;;9.37;;
8281;SDS011;25606;42.686;23.136;2023-05-13T00:12:09;11.43;;;8.90;;
8281;SDS011;25606;42.686;23.136;2023-05-13T00:14:37;10.60;;;8.87;;
8281;SDS011;25606;42.686;23.136;2023-05-13T00:17:05;10.50;;;8.57;;
8281;SDS011;25606;42.686;23.136;2023-05-13T00:19:32;10.57;;;8.50;;
8281;SDS011;25606;42.686;23.136;2023-05-13T00:21:59;11.10;;;8.10;;
8281;SDS011;25606;42.686;23.136;2023-05-13T00:24:27;10.27;;;8.63;;
8281;SDS011;25606;42.686;23.136;2023-05-13T00:26:54;10.83;;;8.53;;
8281;SDS011;25606;42.686;23.136;2023-05-13T00:29:21;9.47;;;8.40;;
8281;SDS011;25606;42.686;23.136;2023-05-13T00:31:50;9.80;;;8.67;;
8281;SDS011;25606;42.686;23.136;2023-05-13T00:34:17;8.97;;;8.03;;
8281;SDS011;25606;42.686;23.136;2023-05-13T00:36:45;10.50;;;8.60;;
8281;SDS011;25606;42.686;23.136;2023-05-13T00:39:12;10.13;;;8.43;;
8281;SDS011;25606;42.686;23.136;2023-05-13T00:41:39;11.57;;;8.23;;
8281;SDS011;25606;42.686;23.136;2023-05-13T00:44:07;11.27;;;8.10;;
8281;SDS011;25606;42.686;23.136;2023-05-13T00:46:34;8.87;;;7.83;;
8281;SDS011;25606;42.686;23.136;2023-05-13T00:49:03;9.90;;;8.10;;
8281;SDS011;25606;42.686;23.136;2023-05-13T00:51:31;11.53;;;9.13;;
8281;SDS011;25606;42.686;23.136;2023-05-13T00:53:58;9.13;;;8.20;;
8281;SDS011;25606;42.686;23.136;2023-05-13T00:56:25;9.57;;;7.50;;
8281;SDS011;25606;42.686;23.136;2023-05-13T00:58:52;8.80;;;7.90;;
8281;SDS011;25606;42.686;23.136;2023-05-13T01:01:22;9.07;;;7.37;;
8281;SDS011;25606;42.686;23.136;2023-05-13T01:03:55;7.73;;;7.03;;
8281;SDS011;25606;42.686;23.136;2023-05-13T01:06:29;8.37;;;7.53;;
8281;SDS011;25606;42.686;23.136;2023-05-13T01:09:00;8.30;;;7.40;;
8281;SDS011;25606;42.686;23.136;2023-05-13T01:11:30;8.77;;;7.37;;
8281;SDS011;25606;42.686;23.136;2023-05-13T01:14:01;8.37;;;7.53;;
8281;SDS011;25606;42.686;23.136;2023-05-13T01:16:30;9.63;;;7.97;;
8281;SDS011;25606;42.686;23.136;2023-05-13T01:18:59;10.67;;;8.13;;
8281;SDS011;25606;42.686;23.136;2023-05-13T01:21:30;9.57;;;8.33;;
8281;SDS011;25606;42.686;23.136;2023-05-13T01:24:00;9.70;;;7.93;;
8281;SDS011;25606;42.686;23.136;2023-05-13T01:26:27;10.27;;;8.43;;
8281;SDS011;25606;42.686;23.136;2023-05-13T01:28:55;10.97;;;8.23;;
8281;SDS011;25606;42.686;23.136;2023-05-13T01:31:22;8.80;;;7.43;;
8281;SDS011;25606;42.686;23.136;2023-05-13T01:33:50;9.13;;;8.20;;
8281;SDS011;25606;42.686;23.136;2023-05-13T01:36:17;9.23;;;8.33;;
8281;SDS011;25606;42.686;23.136;2023-05-13T01:38:46;9.57;;;8.67;;
8281;SDS011;25606;42.686;23.136;2023-05-13T01:41:14;8.70;;;7.80;;
8281;SDS011;25606;42.686;23.136;2023-05-13T01:43:42;10.07;;;8.10;;
8281;SDS011;25606;42.686;23.136;2023-05-13T01:46:12;9.23;;;7.47;;
8281;SDS011;25606;42.686;23.136;2023-05-13T01:48:40;8.53;;;7.57;;
8281;SDS011;25606;42.686;23.136;2023-05-13T01:51:07;10.70;;;7.93;;
8281;SDS011;25606;42.686;23.136;2023-05-13T01:53:35;7.93;;;7.17;;
8281;SDS011;25606;42.686;23.136;2023-05-13T01:56:07;9.13;;;7.80;;
8281;SDS011;25606;42.686;23.136;2023-05-13T01:58:34;9.33;;;7.27;;
8281;SDS011;25606;42.686;23.136;2023-05-13T02:01:02;8.57;;;7.67;;
8281;SDS011;25606;42.686;23.136;2023-05-13T02:03:29;9.30;;;7.27;;
8281;SDS011;25606;42.686;23.136;2023-05-13T02:05:56;8.33;;;7.43;;
8281;SDS011;25606;42.686;23.136;2023-05-13T02:08:24;10.87;;;7.70;;
8281;SDS011;25606;42.686;23.136;2023-05-13T02:10:55;7.87;;;7.00;;
8281;SDS011;25606;42.686;23.136;2023-05-13T02:13:23;10.40;;;7.47;;
8281;SDS011;25606;42.686;23.136;2023-05-13T02:15:51;8.23;;;7.33;;
8281;SDS011;25606;42.686;23.136;2023-05-13T02:18:18;8.03;;;7.23;;
8281;SDS011;25606;42.686;23.136;2023-05-13T02:20:46;7.57;;;6.77;;
8281;SDS011;25606;42.686;23.136;2023-05-13T02:23:13;8.07;;;7.03;;
8281;SDS011;25606;42.686;23.136;2023-05-13T02:25:41;8.27;;;7.30;;
8281;SDS011;25606;42.686;23.136;2023-05-13T02:28:08;10.63;;;7.53;;
8281;SDS011;25606;42.686;23.136;2023-05-13T02:30:37;9.23;;;7.97;;
8281;SDS011;25606;42.686;23.136;2023-05-13T02:33:05;12.97;;;8.10;;
8281;SDS011;25606;42.686;23.136;2023-05-13T02:35:32;10.47;;;8.77;;
8281;SDS011;25606;42.686;23.136;2023-05-13T02:38:00;13.43;;;8.87;;
8281;SDS011;25606;42.686;23.136;2023-05-13T02:40:29;11.90;;;9.53;;
8281;SDS011;25606;42.686;23.136;2023-05-13T02:42:56;11.33;;;8.87;;
8281;SDS011;25606;42.686;23.136;2023-05-13T02:45:23;10.80;;;9.30;;
8281;SDS011;25606;42.686;23.136;2023-05-13T02:47:52;11.40;;;9.77;;
8281;SDS011;25606;42.686;23.136;2023-05-13T02:50:20;10.43;;;9.33;;
8281;SDS011;25606;42.686;23.136;2023-05-13T02:52:47;16.50;;;9.43;;
8281;SDS011;25606;42.686;23.136;2023-05-13T02:55:14;11.60;;;9.53;;
8281;SDS011;25606;42.686;23.136;2023-05-13T02:57:42;11.33;;;9.17;;
8281;SDS011;25606;42.686;23.136;2023-05-13T03:00:10;10.87;;;9.17;;
8281;SDS011;25606;42.686;23.136;2023-05-13T03:02:37;11.30;;;9.27;;
8281;SDS011;25606;42.686;23.136;2023-05-13T03:05:07;13.07;;;10.23;;
8281;SDS011;25606;42.686;23.136;2023-05-13T03:07:34;13.23;;;9.97;;
8281;SDS011;25606;42.686;23.136;2023-05-13T03:10:01;14.33;;;10.17;;
8281;SDS011;25606;42.686;23.136;2023-05-13T03:12:29;13.47;;;10.30;;
8281;SDS011;25606;42.686;23.136;2023-05-13T03:14:56;12.77;;;10.93;;
8281;SDS011;25606;42.686;23.136;2023-05-13T03:17:24;12.80;;;10.50;;
8281;SDS011;25606;42.686;23.136;2023-05-13T03:19:54;12.47;;;10.40;;
8281;SDS011;25606;42.686;23.136;2023-05-13T03:22:23;12.40;;;10.37;;
8281;SDS011;25606;42.686;23.136;2023-05-13T03:24:50;12.70;;;10.40;;
8281;SDS011;25606;42.686;23.136;2023-05-13T03:27:18;11.50;;;10.37;;
8281;SDS011;25606;42.686;23.136;2023-05-13T03:29:45;10.47;;;9.37;;
8281;SDS011;25606;42.686;23.136;2023-05-13T03:32:12;12.10;;;9.97;;
8281;SDS011;25606;42.686;23.136;2023-05-13T03:34:40;10.07;;;8.70;;
8281;SDS011;25606;42.686;23.136;2023-05-13T03:37:07;11.03;;;8.90;;
8281;SDS011;25606;42.686;23.136;2023-05-13T03:39:36;9.80;;;8.50;;
8281;SDS011;25606;42.686;23.136;2023-05-13T03:42:04;10.07;;;8.63;;
8281;SDS011;25606;42.686;23.136;2023-05-13T03:44:31;9.13;;;8.23;;
8281;SDS011;25606;42.686;23.136;2023-05-13T03:46:58;10.17;;;8.57;;
8281;SDS011;25606;42.686;23.136;2023-05-13T03:49:26;10.80;;;9.70;;
8281;SDS011;25606;42.686;23.136;2023-05-13T03:51:53;9.87;;;8.87;;
8281;SDS011;25606;42.686;23.136;2023-05-13T03:54:20;10.80;;;9.07;;
8281;SDS011;25606;42.686;23.136;2023-05-13T03:56:49;10.30;;;9.10;;
8281;SDS011;25606;42.686;23.136;2023-05-13T03:59:16;11.47;;;8.80;;
8281;SDS011;25606;42.686;23.136;2023-05-13T04:01:44;11.03;;;9.10;;
8281;SDS011;25606;42.686;23.136;2023-05-13T04:04:11;9.40;;;8.13;;
8281;SDS011;25606;42.686;23.136;2023-05-13T04:06:39;10.30;;;8.77;;
8281;SDS011;25606;42.686;23.136;2023-05-13T04:09:06;9.90;;;8.47;;
8281;SDS011;25606;42.686;23.136;2023-05-13T04:11:34;10.17;;;9.00;;
8281;SDS011;25606;42.686;23.136;2023-05-13T04:14:03;9.90;;;8.83;;
8281;SDS011;25606;42.686;23.136;2023-05-13T04:16:30;10.50;;;8.57;;
8281;SDS011;25606;42.686;23.136;2023-05-13T04:18:57;9.63;;;8.63;;
8281;SDS011;25606;42.686;23.136;2023-05-13T04:21:25;10.43;;;8.50;;
8281;SDS011;25606;42.686;23.136;2023-05-13T04:23:52;10.00;;;9.00;;
8281;SDS011;25606;42.686;23.136;2023-05-13T04:26:20;10.70;;;8.40;;
8281;SDS011;25606;42.686;23.136;2023-05-13T04:28:47;8.90;;;8.00;;
8281;SDS011;25606;42.686;23.136;2023-05-13T04:31:16;9.07;;;8.07;;
8281;SDS011;25606;42.686;23.136;2023-05-13T04:33:45;11.93;;;8.30;;
8281;SDS011;25606;42.686;23.136;2023-05-13T04:36:12;10.37;;;8.37;;
8281;SDS011;25606;42.686;23.136;2023-05-13T04:38:39;12.57;;;7.87;;
8281;SDS011;25606;42.686;23.136;2023-05-13T04:41:07;7.80;;;7.03;;
8281;SDS011;25606;42.686;23.136;2023-05-13T04:43:34;8.10;;;6.83;;
8281;SDS011;25606;42.686;23.136;2023-05-13T04:46:01;7.43;;;6.73;;
8281;SDS011;25606;42.686;23.136;2023-05-13T04:48:30;8.67;;;7.63;;
8281;SDS011;25606;42.686;23.136;2023-05-13T04:50:57;8.60;;;7.80;;
8281;SDS011;25606;42.686;23.136;2023-05-13T04:53:25;8.93;;;8.13;;
8281;SDS011;25606;42.686;23.136;2023-05-13T04:55:52;9.07;;;8.00;;
8281;SDS011;25606;42.686;23.136;2023-05-13T04:58:24;10.17;;;8.77;;
8281;SDS011;25606;42.686;23.136;2023-05-13T05:00:52;9.97;;;8.67;;
8281;SDS011;25606;42.686;23.136;2023-05-13T05:03:19;10.57;;;8.93;;
8281;SDS011;25606;42.686;23.136;2023-05-13T05:05:48;10.27;;;8.33;;
8281;SDS011;25606;42.686;23.136;2023-05-13T05:08:15;9.97;;;8.37;;
8281;SDS011;25606;42.686;23.136;2023-05-13T05:10:43;10.07;;;8.50;;
8281;SDS011;25606;42.686;23.136;2023-05-13T05:13:10;11.17;;;8.40;;
8281;SDS011;25606;42.686;23.136;2023-05-13T05:15:37;9.83;;;8.10;;
8281;SDS011;25606;42.686;23.136;2023-05-13T05:18:05;9.40;;;7.93;;
8281;SDS011;25606;42.686;23.136;2023-05-13T05:20:35;8.10;;;6.97;;
8281;SDS011;25606;42.686;23.136;2023-05-13T05:23:03;8.97;;;6.73;;
8281;SDS011;25606;42.686;23.136;2023-05-13T05:25:31;7.47;;;6.70;;
8281;SDS011;25606;42.686;23.136;2023-05-13T05:27:58;7.53;;;6.67;;
8281;SDS011;25606;42.686;23.136;2023-05-13T05:30:29;7.10;;;6.40;;
8281;SDS011;25606;42.686;23.136;2023-05-13T05:32:56;7.40;;;6.43;;
8281;SDS011;25606;42.686;23.136;2023-05-13T05:35:24;8.10;;;6.83;;
8281;SDS011;25606;42.686;23.136;2023-05-13T05:37:52;6.63;;;5.80;;
8281;SDS011;25606;42.686;23.136;2023-05-13T05:40:20;6.37;;;5.77;;
8281;SDS011;25606;42.686;23.136;2023-05-13T05:42:48;7.23;;;5.77;;
8281;SDS011;25606;42.686;23.136;2023-05-13T05:45:15;8.93;;;6.27;;
8281;SDS011;25606;42.686;23.136;2023-05-13T05:47:42;6.93;;;6.10;;
8281;SDS011;25606;42.686;23.136;2023-05-13T05:50:10;6.53;;;5.83;;
8281;SDS011;25606;42.686;23.136;2023-05-13T05:52:37;5.83;;;5.23;;
8281;SDS011;25606;42.686;23.136;2023-05-13T05:55:05;6.70;;;5.33;;
8281;SDS011;25606;42.686;23.136;2023-05-13T05:57:34;6.87;;;5.40;;
8281;SDS011;25606;42.686;23.136;2023-05-13T06:00:01;6.40;;;5.80;;
8281;SDS011;25606;42.686;23.136;2023-05-13T06:02:29;6.07;;;5.53;;
8281;SDS011;25606;42.686;23.136;2023-05-13T06:04:56;6.93;;;5.73;;
8281;SDS011;25606;42.686;23.136;2023-05-13T06:07:23;6.20;;;5.57;;
8281;SDS011;25606;42.686;23.136;2023-05-13T06:09:50;5.97;;;5.30;;
8281;SDS011;25606;42.686;23.136;2023-05-13T06:12:18;7.07;;;6.17;;
8281;SDS011;25606;42.686;23.136;2023-05-13T06:14:48;5.57;;;4.97;;
8281;SDS011;25606;42.686;23.136;2023-05-13T06:17:15;7.00;;;5.43;;
8281;SDS011;25606;42.686;23.136;2023-05-13T06:19:42;6.60;;;6.00;;
8281;SDS011;25606;42.686;23.136;2023-05-13T06:22:10;7.27;;;5.57;;
8281;SDS011;25606;42.686;23.136;2023-05-13T06:24:37;7.80;;;5.93;;
8281;SDS011;25606;42.686;23.136;2023-05-13T06:27:06;6.50;;;5.17;;
8281;SDS011;25606;42.686;23.136;2023-05-13T06:29:34;6.60;;;4.97;;
8281;SDS011;25606;42.686;23.136;2023-05-13T06:32:03;5.33;;;4.83;;
8281;SDS011;25606;42.686;23.136;2023-05-13T06:34:30;6.33;;;5.53;;
8281;SDS011;25606;42.686;23.136;2023-05-13T06:36:57;6.00;;;4.83;;
8281;SDS011;25606;42.686;23.136;2023-05-13T06:39:24;6.37;;;5.17;;
8281;SDS011;25606;42.686;23.136;2023-05-13T06:41:52;7.07;;;4.73;;
8281;SDS011;25606;42.686;23.136;2023-05-13T06:44:19;6.70;;;5.37;;
8281;SDS011;25606;42.686;23.136;2023-05-13T06:46:47;5.70;;;5.20;;
8281;SDS011;25606;42.686;23.136;2023-05-13T06:49:15;5.77;;;5.03;;
8281;SDS011;25606;42.686;23.136;2023-05-13T06:51:43;5.83;;;5.03;;
8281;SDS011;25606;42.686;23.136;2023-05-13T06:54:11;12.70;;;9.97;;
8281;SDS011;25606;42.686;23.136;2023-05-13T06:56:38;6.93;;;5.60;;
8281;SDS011;25606;42.686;23.136;2023-05-13T06:59:05;6.20;;;5.67;;
8281;SDS011;25606;42.686;23.136;2023-05-13T07:01:32;6.23;;;5.63;;
8281;SDS011;25606;42.686;23.136;2023-05-13T07:04:00;6.27;;;5.67;;
8281;SDS011;25606;42.686;23.136;2023-05-13T07:06:28;9.00;;;6.67;;
8281;SDS011;25606;42.686;23.136;2023-05-13T07:08:56;9.40;;;8.40;;
8281;SDS011;25606;42.686;23.136;2023-05-13T07:11:23;6.77;;;6.10;;
8281;SDS011;25606;42.686;23.136;2023-05-13T07:13:51;12.33;;;9.60;;
8281;SDS011;25606;42.686;23.136;2023-05-13T07:16:18;7.20;;;6.03;;
8281;SDS011;25606;42.686;23.136;2023-05-13T07:18:46;9.47;;;8.63;;
8281;SDS011;25606;42.686;23.136;2023-05-13T07:21:13;13.37;;;12.07;;
8281;SDS011;25606;42.686;23.136;2023-05-13T07:23:42;5.27;;;4.73;;
8281;SDS011;25606;42.686;23.136;2023-05-13T07:26:09;5.43;;;4.87;;
8281;SDS011;25606;42.686;23.136;2023-05-13T07:28:37;5.53;;;4.53;;
8281;SDS011;25606;42.686;23.136;2023-05-13T07:31:04;6.07;;;5.43;;
8281;SDS011;25606;42.686;23.136;2023-05-13T07:33:31;6.67;;;4.73;;
8281;SDS011;25606;42.686;23.136;2023-05-13T07:35:59;6.17;;;5.57;;
8281;SDS011;25606;42.686;23.136;2023-05-13T07:38:26;5.37;;;4.83;;
8281;SDS011;25606;42.686;23.136;2023-05-13T07:40:55;6.83;;;5.10;;
8281;SDS011;25606;42.686;23.136;2023-05-13T07:43:22;5.23;;;4.50;;
8281;SDS011;25606;42.686;23.136;2023-05-13T07:45:49;4.60;;;4.20;;
8281;SDS011;25606;42.686;23.136;2023-05-13T07:48:16;9.77;;;8.73;;
8281;SDS011;25606;42.686;23.136;2023-05-13T07:50:44;5.83;;;5.17;;
8281;SDS011;25606;42.686;23.136;2023-05-13T07:53:12;7.07;;;4.83;;
8281;SDS011;25606;42.686;23.136;2023-05-13T07:55:41;5.60;;;4.70;;
8281;SDS011;25606;42.686;23.136;2023-05-13T07:58:15;6.53;;;4.20;;
8281;SDS011;25606;42.686;23.136;2023-05-13T08:00:47;5.50;;;4.43;;
8281;SDS011;25606;42.686;23.136;2023-05-13T08:03:15;5.10;;;4.33;;
8281;SDS011;25606;42.686;23.136;2023-05-13T08:05:43;4.93;;;4.43;;
8281;SDS011;25606;42.686;23.136;2023-05-13T08:08:12;6.50;;;4.73;;
8281;SDS011;25606;42.686;23.136;2023-05-13T08:10:42;6.43;;;4.90;;
8281;SDS011;25606;42.686;23.136;2023-05-13T08:13:12;4.90;;;4.40;;
8281;SDS011;25606;42.686;23.136;2023-05-13T08:15:54;85.80;;;49.47;;
8281;SDS011;25606;42.686;23.136;2023-05-13T08:18:21;8.70;;;7.37;;
8281;SDS011;25606;42.686;23.136;2023-05-13T08:20:48;6.03;;;5.27;;
8281;SDS011;25606;42.686;23.136;2023-05-13T08:23:16;6.00;;;5.03;;
8281;SDS011;25606;42.686;23.136;2023-05-13T08:25:44;6.40;;;5.17;;
8281;SDS011;25606;42.686;23.136;2023-05-13T08:28:12;10.07;;;5.60;;
8281;SDS011;25606;42.686;23.136;2023-05-13T08:30:39;5.37;;;4.87;;
8281;SDS011;25606;42.686;23.136;2023-05-13T08:33:09;7.93;;;6.00;;
8281;SDS011;25606;42.686;23.136;2023-05-13T08:35:37;5.33;;;4.83;;
8281;SDS011;25606;42.686;23.136;2023-05-13T08:38:05;5.23;;;4.77;;
8281;SDS011;25606;42.686;23.136;2023-05-13T08:40:32;6.83;;;4.80;;
8281;SDS011;25606;42.686;23.136;2023-05-13T08:43:00;6.87;;;5.40;;
8281;SDS011;25606;42.686;23.136;2023-05-13T08:45:28;5.73;;;5.23;;
8281;SDS011;25606;42.686;23.136;2023-05-13T08:47:57;7.80;;;5.80;;
8281;SDS011;25606;42.686;23.136;2023-05-13T08:50:26;6.23;;;5.07;;
8281;SDS011;25606;42.686;23.136;2023-05-13T08:52:56;6.87;;;5.37;;
8281;SDS011;25606;42.686;23.136;2023-05-13T08:55:23;7.47;;;5.73;;
8281;SDS011;25606;42.686;23.136;2023-05-13T08:57:51;6.60;;;5.70;;
8281;SDS011;25606;42.686;23.136;2023-05-13T09:00:19;8.97;;;6.50;;
8281;SDS011;25606;42.686;23.136;2023-05-13T09:02:46;7.33;;;6.40;;
8281;SDS011;25606;42.686;23.136;2023-05-13T09:05:15;8.47;;;6.23;;
8281;SDS011;25606;42.686;23.136;2023-05-13T09:07:48;10.93;;;6.57;;
8281;SDS011;25606;42.686;23.136;2023-05-13T09:10:19;10.63;;;6.40;;
8281;SDS011;25606;42.686;23.136;2023-05-13T09:12:48;9.80;;;7.27;;
8281;SDS011;25606;42.686;23.136;2023-05-13T09:15:16;9.50;;;6.07;;
8281;SDS011;25606;42.686;23.136;2023-05-13T09:17:46;8.67;;;5.87;;
8281;SDS011;25606;42.686;23.136;2023-05-13T09:20:15;6.80;;;6.20;;
8281;SDS011;25606;42.686;23.136;2023-05-13T09:22:44;8.87;;;6.37;;
8281;SDS011;25606;42.686;23.136;2023-05-13T09:25:14;7.87;;;5.83;;
8281;SDS011;25606;42.686;23.136;2023-05-13T09:27:42;7.63;;;6.40;;
8281;SDS011;25606;42.686;23.136;2023-05-13T09:30:12;6.57;;;5.60;;
8281;SDS011;25606;42.686;23.136;2023-05-13T09:32:40;6.07;;;5.53;;
8281;SDS011;25606;42.686;23.136;2023-05-13T09:35:09;7.63;;;6.23;;
8281;SDS011;25606;42.686;23.136;2023-05-13T09:37:41;6.37;;;5.77;;
8281;SDS011;25606;42.686;23.136;2023-05-13T09:40:10;5.73;;;5.20;;
8281;SDS011;25606;42.686;23.136;2023-05-13T09:42:43;8.67;;;5.90;;
8281;SDS011;25606;42.686;23.136;2023-05-13T09:45:12;10.30;;;6.40;;
8281;SDS011;25606;42.686;23.136;2023-05-13T09:47:40;8.73;;;6.63;;
8281;SDS011;25606;42.686;23.136;2023-05-13T09:50:09;7.97;;;6.03;;
8281;SDS011;25606;42.686;23.136;2023-05-13T09:52:38;9.77;;;6.30;;
8281;SDS011;25606;42.686;23.136;2023-05-13T09:55:10;6.67;;;5.73;;
8281;SDS011;25606;42.686;23.136;2023-05-13T09:57:40;9.37;;;7.10;;
8281;SDS011;25606;42.686;23.136;2023-05-13T10:00:09;6.63;;;6.03;;
8281;SDS011;25606;42.686;23.136;2023-05-13T10:02:37;6.37;;;5.77;;
8281;SDS011;25606;42.686;23.136;2023-05-13T10:05:05;6.63;;;6.03;;
8281;SDS011;25606;42.686;23.136;2023-05-13T10:07:34;5.83;;;5.33;;
8281;SDS011;25606;42.686;23.136;2023-05-13T10:10:02;8.40;;;6.30;;
8281;SDS011;25606;42.686;23.136;2023-05-13T10:12:31;8.73;;;7.20;;
8281;SDS011;25606;42.686;23.136;2023-05-13T10:15:00;9.47;;;6.60;;
8281;SDS011;25606;42.686;23.136;2023-05-13T10:17:34;13.20;;;7.30;;
8281;SDS011;25606;42.686;23.136;2023-05-13T10:20:02;11.77;;;6.87;;
8281;SDS011;25606;42.686;23.136;2023-05-13T10:25:13;12.30;;;7.23;;
8281;SDS011;25606;42.686;23.136;2023-05-13T10:27:41;12.05;;;6.45;;
8281;SDS011;25606;42.686;23.136;2023-05-13T10:30:09;12.70;;;7.73;;
8281;SDS011;25606;42.686;23.136;2023-05-13T10:32:50;14.20;;;6.97;;
8281;SDS011;25606;42.686;23.136;2023-05-13T10:35:18;12.63;;;7.30;;
8281;SDS011;25606;42.686;23.136;2023-05-13T10:37:53;10.23;;;6.13;;
8281;SDS011;25606;42.686;23.136;2023-05-13T10:40:24;12.07;;;6.47;;
8281;SDS011;25606;42.686;23.136;2023-05-13T10:42:59;14.77;;;7.93;;
8281;SDS011;25606;42.686;23.136;2023-05-13T10:45:34;16.95;;;8.50;;
8281;SDS011;25606;42.686;23.136;2023-05-13T10:48:09;12.27;;;7.63;;
8281;SDS011;25606;42.686;23.136;2023-05-13T10:50:51;12.27;;;7.05;;
8281;SDS011;25606;42.686;23.136;2023-05-13T10:53:21;14.13;;;8.80;;
8281;SDS011;25606;42.686;23.136;2023-05-13T10:55:51;9.50;;;7.13;;
8281;SDS011;25606;42.686;23.136;2023-05-13T10:58:19;9.33;;;6.53;;
8281;SDS011;25606;42.686;23.136;2023-05-13T11:00:48;10.33;;;6.77;;
8281;SDS011;25606;42.686;23.136;2023-05-13T11:03:27;10.70;;;6.63;;
8281;SDS011;25606;42.686;23.136;2023-05-13T11:05:58;11.20;;;8.47;;
8281;SDS011;25606;42.686;23.136;2023-05-13T11:08:31;12.43;;;8.17;;
8281;SDS011;25606;42.686;23.136;2023-05-13T11:11:02;28.50;;;18.40;;
8281;SDS011;25606;42.686;23.136;2023-05-13T11:13:43;9.30;;;6.07;;
8281;SDS011;25606;42.686;23.136;2023-05-13T11:16:11;10.37;;;6.00;;
8281;SDS011;25606;42.686;23.136;2023-05-13T11:18:41;13.47;;;6.30;;
8281;SDS011;25606;42.686;23.136;2023-05-13T11:21:17;11.60;;;6.30;;
8281;SDS011;25606;42.686;23.136;2023-05-13T11:23:55;13.93;;;6.80;;
8281;SDS011;25606;42.686;23.136;2023-05-13T11:26:24;10.90;;;5.72;;
8281;SDS011;25606;42.686;23.136;2023-05-13T11:29:05;11.18;;;6.32;;
8281;SDS011;25606;42.686;23.136;2023-05-13T11:31:44;8.30;;;5.00;;
8281;SDS011;25606;42.686;23.136;2023-05-13T11:34:15;12.37;;;6.40;;
8281;SDS011;25606;42.686;23.136;2023-05-13T11:36:44;11.30;;;5.60;;
8281;SDS011;25606;42.686;23.136;2023-05-13T11:39:13;14.93;;;8.55;;
8281;SDS011;25606;42.686;23.136;2023-05-13T11:41:42;17.35;;;9.00;;
8281;SDS011;25606;42.686;23.136;2023-05-13T11:44:13;22.15;;;13.88;;
8281;SDS011;25606;42.686;23.136;2023-05-13T11:46:51;17.23;;;11.95;;
8281;SDS011;25606;42.686;23.136;2023-05-13T11:49:32;32.53;;;29.17;;
8281;SDS011;25606;42.686;23.136;2023-05-13T11:52:02;41.42;;;34.85;;
8281;SDS011;25606;42.686;23.136;2023-05-13T11:54:29;18.13;;;7.47;;
8281;SDS011;25606;42.686;23.136;2023-05-13T11:56:57;40.00;;;29.25;;
8281;SDS011;25606;42.686;23.136;2023-05-13T11:59:24;95.22;;;85.30;;
8281;SDS011;25606;42.686;23.136;2023-05-13T12:01:58;83.68;;;75.38;;
8281;SDS011;25606;42.686;23.136;2023-05-13T12:04:26;102.63;;;91.65;;
8281;SDS011;25606;42.686;23.136;2023-05-13T12:06:56;119.40;;;106.60;;
8281;SDS011;25606;42.686;23.136;2023-05-13T12:09:24;146.00;;;131.05;;
8281;SDS011;25606;42.686;23.136;2023-05-13T12:11:51;175.23;;;155.98;;
8281;SDS011;25606;42.686;23.136;2023-05-13T12:14:19;196.13;;;176.18;;
8281;SDS011;25606;42.686;23.136;2023-05-13T12:16:46;125.40;;;113.63;;
8281;SDS011;25606;42.686;23.136;2023-05-13T12:19:14;111.15;;;100.85;;
8281;SDS011;25606;42.686;23.136;2023-05-13T12:21:41;68.95;;;62.53;;
8281;SDS011;25606;42.686;23.136;2023-05-13T12:24:19;59.15;;;53.92;;
8281;SDS011;25606;42.686;23.136;2023-05-13T12:26:47;32.03;;;27.75;;
8281;SDS011;25606;42.686;23.136;2023-05-13T12:29:14;10.48;;;4.93;;
8281;SDS011;25606;42.686;23.136;2023-05-13T12:34:29;10.77;;;4.63;;
8281;SDS011;25606;42.686;23.136;2023-05-13T12:37:07;8.07;;;4.20;;
8281;SDS011;25606;42.686;23.136;2023-05-13T12:39:36;5.87;;;3.70;;
8281;SDS011;25606;42.686;23.136;2023-05-13T12:42:03;9.00;;;5.00;;
8281;SDS011;25606;42.686;23.136;2023-05-13T12:44:31;4.90;;;4.40;;
8281;SDS011;25606;42.686;23.136;2023-05-13T12:46:58;5.97;;;4.57;;
8281;SDS011;25606;42.686;23.136;2023-05-13T12:49:26;5.37;;;4.67;;
8281;SDS011;25606;42.686;23.136;2023-05-13T12:51:53;6.53;;;5.30;;
8281;SDS011;25606;42.686;23.136;2023-05-13T12:54:21;8.97;;;5.43;;
8281;SDS011;25606;42.686;23.136;2023-05-13T12:56:50;7.27;;;5.20;;
8281;SDS011;25606;42.686;23.136;2023-05-13T12:59:18;6.53;;;5.43;;
8281;SDS011;25606;42.686;23.136;2023-05-13T13:01:45;5.87;;;5.17;;
8281;SDS011;25606;42.686;23.136;2023-05-13T13:04:13;7.20;;;5.33;;
8281;SDS011;25606;42.686;23.136;2023-05-13T13:06:43;6.30;;;5.37;;
8281;SDS011;25606;42.686;23.136;2023-05-13T13:09:10;6.07;;;5.07;;
8281;SDS011;25606;42.686;23.136;2023-05-13T13:11:37;6.37;;;5.43;;
8281;SDS011;25606;42.686;23.136;2023-05-13T13:14:06;7.97;;;5.90;;
8281;SDS011;25606;42.686;23.136;2023-05-13T13:16:33;7.03;;;5.73;;
8281;SDS011;25606;42.686;23.136;2023-05-13T13:19:01;6.73;;;5.23;;
8281;SDS011;25606;42.686;23.136;2023-05-13T13:21:28;8.40;;;5.50;;
8281;SDS011;25606;42.686;23.136;2023-05-13T13:23:56;8.80;;;5.97;;
8281;SDS011;25606;42.686;23.136;2023-05-13T13:26:23;6.60;;;5.37;;
8281;SDS011;25606;42.686;23.136;2023-05-13T13:28:50;10.40;;;5.00;;
8281;SDS011;25606;42.686;23.136;2023-05-13T13:31:19;8.13;;;5.53;;
8281;SDS011;25606;42.686;23.136;2023-05-13T13:33:46;5.93;;;5.03;;
8281;SDS011;25606;42.686;23.136;2023-05-13T13:36:14;7.33;;;5.73;;
8281;SDS011;25606;42.686;23.136;2023-05-13T13:38:41;10.47;;;5.07;;
8281;SDS011;25606;42.686;23.136;2023-05-13T13:41:08;6.43;;;5.10;;
8281;SDS011;25606;42.686;23.136;2023-05-13T13:43:36;5.40;;;4.87;;
8281;SDS011;25606;42.686;23.136;2023-05-13T13:46:03;8.47;;;5.17;;
8281;SDS011;25606;42.686;23.136;2023-05-13T13:48:32;7.07;;;5.00;;
8281;SDS011;25606;42.686;23.136;2023-05-13T13:50:59;5.90;;;5.10;;
8281;SDS011;25606;42.686;23.136;2023-05-13T13:53:27;6.90;;;4.93;;
8281;SDS011;25606;42.686;23.136;2023-05-13T13:55:54;6.73;;;5.00;;
8281;SDS011;25606;42.686;23.136;2023-05-13T13:58:22;6.77;;;4.97;;
8281;SDS011;25606;42.686;23.136;2023-05-13T14:00:49;6.17;;;5.50;;
8281;SDS011;25606;42.686;23.136;2023-05-13T14:03:16;7.67;;;6.30;;
8281;SDS011;25606;42.686;23.136;2023-05-13T14:05:45;6.53;;;5.30;;
8281;SDS011;25606;42.686;23.136;2023-05-13T14:08:12;7.87;;;5.37;;
8281;SDS011;25606;42.686;23.136;2023-05-13T14:10:40;5.27;;;4.57;;
8281;SDS011;25606;42.686;23.136;2023-05-13T14:13:07;5.13;;;4.63;;
8281;SDS011;25606;42.686;23.136;2023-05-13T14:15:34;4.90;;;4.50;;
8281;SDS011;25606;42.686;23.136;2023-05-13T14:18:03;6.47;;;5.10;;
8281;SDS011;25606;42.686;23.136;2023-05-13T14:20:31;6.50;;;4.40;;
8281;SDS011;25606;42.686;23.136;2023-05-13T14:23:01;5.83;;;5.23;;
8281;SDS011;25606;42.686;23.136;2023-05-13T14:25:28;5.97;;;5.13;;
8281;SDS011;25606;42.686;23.136;2023-05-13T14:27:56;7.00;;;4.80;;
8281;SDS011;25606;42.686;23.136;2023-05-13T14:30:23;5.40;;;4.90;;
8281;SDS011;25606;42.686;23.136;2023-05-13T14:32:51;9.07;;;5.20;;
8281;SDS011;25606;42.686;23.136;2023-05-13T14:35:19;7.07;;;5.37;;
8281;SDS011;25606;42.686;23.136;2023-05-13T14:37:46;5.17;;;4.67;;
8281;SDS011;25606;42.686;23.136;2023-05-13T14:40:14;7.13;;;4.63;;
8281;SDS011;25606;42.686;23.136;2023-05-13T14:42:42;5.37;;;4.73;;
8281;SDS011;25606;42.686;23.136;2023-05-13T14:45:09;5.40;;;4.90;;
8281;SDS011;25606;42.686;23.136;2023-05-13T14:47:37;7.20;;;4.77;;
8281;SDS011;25606;42.686;23.136;2023-05-13T14:50:04;5.67;;;5.20;;
8281;SDS011;25606;42.686;23.136;2023-05-13T14:52:32;6.17;;;4.63;;
8281;SDS011;25606;42.686;23.136;2023-05-13T14:54:59;6.20;;;4.70;;